Time;durP1;ratioP1;P1;durP2;ratioP2;P2;SDS_P1;SDS_P2;PMS_P1;PMS_P2;Temp;Humidity;BMP_temperature;BMP_pressure;BME280_temperature;BME280_humidity;BME280_pressure;Samples;Min_cycle;Max_cycle;Signal;HPM_P1;HPM_P2
2021/06/22 00:02:01;;;;;;;11.00;10.10;;;18.60;99.90;;;;;;4936625;29;20547;-77
2021/06/22 00:04:28;;;;;;;11.40;10.43;;;18.60;99.90;;;;;;4935213;29;20207;-77
2021/06/22 00:06:55;;;;;;;11.33;10.53;;;18.60;99.90;;;;;;4936285;29;20198;-77
2021/06/22 00:09:23;;;;;;;11.13;10.33;;;18.70;99.90;;;;;;4936596;29;20217;-76
2021/06/22 00:11:50;;;;;;;11.53;10.73;;;18.70;99.90;;;;;;4931941;29;20198;-77
2021/06/22 00:14:17;;;;;;;11.23;10.43;;;18.70;99.90;;;;;;4935045;29;20214;-77
2021/06/22 00:16:44;;;;;;;10.80;9.90;;;18.70;99.90;;;;;;4936296;29;20669;-77
2021/06/22 00:19:12;;;;;;;11.60;10.60;;;18.70;99.90;;;;;;4935211;29;20291;-77
2021/06/22 00:21:39;;;;;;;11.27;10.37;;;18.70;99.90;;;;;;4927801;29;20845;-77
2021/06/22 00:24:07;;;;;;;11.27;10.47;;;18.60;99.90;;;;;;4934998;29;20599;-76
2021/06/22 00:26:36;;;;;;;11.17;10.37;;;18.60;99.90;;;;;;4935944;29;20222;-77
2021/06/22 00:29:03;;;;;;;11.20;10.47;;;18.50;99.90;;;;;;4932346;29;20240;-77
2021/06/22 00:31:30;;;;;;;12.07;11.27;;;18.40;99.90;;;;;;4935961;29;20198;-77
2021/06/22 00:33:57;;;;;;;11.80;11.00;;;18.30;99.90;;;;;;4936028;29;20256;-77
2021/06/22 00:36:23;;;;;;;11.50;10.70;;;18.30;99.90;;;;;;4935894;29;20267;-77
2021/06/22 00:38:50;;;;;;;11.80;10.87;;;18.20;99.90;;;;;;4934688;29;20208;-77
2021/06/22 00:41:17;;;;;;;11.20;10.50;;;18.20;99.90;;;;;;4934920;29;20303;-77
2021/06/22 00:43:45;;;;;;;11.33;10.63;;;18.20;99.90;;;;;;4935691;29;20559;-77
2021/06/22 00:46:12;;;;;;;12.00;11.20;;;18.20;99.90;;;;;;4934372;29;20775;-77
2021/06/22 00:48:39;;;;;;;11.33;10.53;;;18.20;99.90;;;;;;4935565;29;20224;-77
2021/06/22 00:51:06;;;;;;;11.80;10.93;;;18.20;99.90;;;;;;4934541;29;20214;-77
2021/06/22 00:53:35;;;;;;;11.87;11.07;;;18.30;99.90;;;;;;4934454;29;20290;-77
2021/06/22 00:56:03;;;;;;;12.47;11.57;;;18.30;99.90;;;;;;4934194;29;20275;-77
2021/06/22 00:58:37;;;;;;;12.50;11.63;;;18.30;99.90;;;;;;4934391;29;20677;-77
2021/06/22 01:01:05;;;;;;;11.50;10.80;;;18.40;99.90;;;;;;4935552;29;20587;-77
2021/06/22 01:03:33;;;;;;;12.00;11.20;;;18.40;99.90;;;;;;4934482;29;20208;-76
2021/06/22 01:06:06;;;;;;;12.20;11.40;;;18.40;99.90;;;;;;4935459;29;20209;-77
2021/06/22 01:08:37;;;;;;;12.27;11.30;;;18.40;99.90;;;;;;4934208;29;20585;-77
2021/06/22 01:11:04;;;;;;;12.77;11.83;;;18.30;99.90;;;;;;4934216;29;20201;-77
2021/06/22 01:13:31;;;;;;;12.20;11.30;;;18.30;99.90;;;;;;4935176;29;20217;-77
2021/06/22 01:15:58;;;;;;;12.63;11.83;;;18.30;99.90;;;;;;4934156;29;20236;-77
2021/06/22 01:18:27;;;;;;;13.00;11.90;;;18.30;99.90;;;;;;4935376;29;20682;-76
2021/06/22 01:21:16;;;;;;;12.20;11.40;;;18.20;99.90;;;;;;4934888;29;20296;-77
2021/06/22 01:23:49;;;;;;;11.67;10.87;;;18.20;99.90;;;;;;4921838;29;20192;-77
2021/06/22 01:26:15;;;;;;;12.20;11.40;;;18.10;99.90;;;;;;4933651;29;20314;-77
2021/06/22 01:28:46;;;;;;;12.00;11.20;;;18.10;99.90;;;;;;4953841;28;20748;-77
2021/06/22 01:31:16;;;;;;;12.90;11.80;;;18.00;99.90;;;;;;4935160;29;20194;-76
2021/06/22 01:33:47;;;;;;;12.40;11.43;;;18.00;99.90;;;;;;4935146;29;20193;-77
2021/06/22 01:36:18;;;;;;;12.03;11.23;;;18.00;99.90;;;;;;4933725;29;20233;-77
2021/06/22 01:38:45;;;;;;;12.03;11.23;;;18.00;99.90;;;;;;4933626;29;20285;-77
2021/06/22 01:41:12;;;;;;;12.27;11.37;;;17.90;99.90;;;;;;4930593;29;20675;-77
2021/06/22 01:43:41;;;;;;;12.53;11.73;;;18.00;99.90;;;;;;4932706;29;20205;-77
2021/06/22 01:46:08;;;;;;;12.83;11.77;;;18.00;99.90;;;;;;4933587;29;20317;-77
2021/06/22 01:48:36;;;;;;;12.67;11.50;;;18.00;99.90;;;;;;4933308;29;20572;-77
2021/06/22 01:51:04;;;;;;;13.50;12.50;;;18.00;99.90;;;;;;4934299;29;20282;-77
2021/06/22 01:53:32;;;;;;;13.50;12.60;;;18.00;99.90;;;;;;4934773;29;20198;-76
2021/06/22 01:56:11;;;;;;;13.67;12.30;;;18.00;99.90;;;;;;4932973;29;20242;-77
2021/06/22 01:58:39;;;;;;;12.57;11.77;;;18.00;99.90;;;;;;4933398;29;20260;-77
2021/06/22 02:01:25;;;;;;;12.53;11.63;;;18.10;99.90;;;;;;4934998;29;20212;-76
2021/06/22 02:04:16;;;;;;;13.27;12.20;;;18.00;99.90;;;;;;4934187;29;20207;-76
2021/06/22 02:06:44;;;;;;;12.83;12.03;;;18.00;99.90;;;;;;4934630;29;20199;-77
2021/06/22 02:09:30;;;;;;;13.37;12.47;;;18.10;99.90;;;;;;4934884;29;20726;-78
2021/06/22 02:12:00;;;;;;;14.27;13.20;;;18.10;99.90;;;;;;4933643;29;20231;-77
2021/06/22 02:14:29;;;;;;;14.30;13.23;;;18.20;99.90;;;;;;4932981;29;20232;-77
2021/06/22 02:16:57;;;;;;;13.13;12.07;;;18.10;99.90;;;;;;4933196;29;20289;-77
2021/06/22 02:19:24;;;;;;;13.30;12.50;;;18.10;99.90;;;;;;4933236;29;20252;-77
2021/06/22 02:21:51;;;;;;;14.13;13.07;;;18.10;99.90;;;;;;4932475;29;20289;-77
2021/06/22 02:24:24;;;;;;;13.63;12.73;;;18.10;99.90;;;;;;4933115;29;20695;-77
2021/06/22 02:26:52;;;;;;;13.30;12.30;;;18.10;99.90;;;;;;4932894;29;20203;-77
2021/06/22 02:29:20;;;;;;;13.23;12.43;;;18.00;99.90;;;;;;4933105;29;20221;-78
2021/06/22 02:31:47;;;;;;;13.33;12.43;;;18.10;99.90;;;;;;4932848;29;20576;-76
2021/06/22 02:34:16;;;;;;;14.13;13.00;;;18.00;99.90;;;;;;4932796;29;20240;-76
2021/06/22 02:36:43;;;;;;;14.07;13.07;;;18.10;99.90;;;;;;4933107;29;20197;-76
2021/06/22 02:39:10;;;;;;;14.73;13.53;;;18.10;99.90;;;;;;4933936;29;20253;-80
2021/06/22 02:41:48;;;;;;;13.27;12.37;;;18.10;99.90;;;;;;4936203;29;20201;-79
2021/06/22 02:44:16;;;;;;;13.00;12.20;;;18.10;99.90;;;;;;4943062;29;20200;-79
2021/06/22 02:46:45;;;;;;;13.50;12.60;;;18.10;99.90;;;;;;4947601;29;20200;-79
2021/06/22 02:49:12;;;;;;;13.80;12.70;;;18.10;99.90;;;;;;4936244;29;20246;-79
2021/06/22 02:51:40;;;;;;;14.23;13.20;;;18.10;99.90;;;;;;4940195;29;20208;-81
2021/06/22 02:54:07;;;;;;;14.73;13.70;;;18.10;99.90;;;;;;4940306;29;20869;-78
2021/06/22 02:56:34;;;;;;;13.37;12.47;;;18.10;99.90;;;;;;4940158;29;20228;-79
2021/06/22 02:59:04;;;;;;;15.23;13.73;;;18.10;99.90;;;;;;4936240;29;20248;-79
2021/06/22 03:01:33;;;;;;;15.17;13.80;;;18.10;99.90;;;;;;4938501;29;20199;-78
2021/06/22 03:04:00;;;;;;;14.00;13.10;;;18.10;99.90;;;;;;4935541;29;20252;-75
2021/06/22 03:06:28;;;;;;;15.20;14.00;;;18.10;99.90;;;;;;4935489;29;20220;-77
2021/06/22 03:08:59;;;;;;;14.27;13.37;;;18.10;99.90;;;;;;4934353;29;20717;-77
2021/06/22 03:11:36;;;;;;;15.77;14.67;;;18.10;99.90;;;;;;4934017;29;20208;-77
2021/06/22 03:14:05;;;;;;;14.37;13.47;;;18.10;99.90;;;;;;4934527;29;20315;-76
2021/06/22 03:16:38;;;;;;;15.70;14.57;;;18.10;99.90;;;;;;4934166;29;20633;-76
2021/06/22 03:19:07;;;;;;;14.73;13.83;;;18.10;99.90;;;;;;4935969;29;20215;-76
2021/06/22 03:21:42;;;;;;;17.00;15.80;;;18.10;99.90;;;;;;4935947;29;20217;-77
2021/06/22 03:24:10;;;;;;;17.27;15.57;;;18.10;99.90;;;;;;4936192;29;20208;-76
2021/06/22 03:26:37;;;;;;;15.90;14.80;;;18.10;99.90;;;;;;4935853;29;20216;-76
2021/06/22 03:29:05;;;;;;;16.03;15.03;;;18.10;99.90;;;;;;4937324;29;20201;-77
2021/06/22 03:31:56;;;;;;;17.33;15.97;;;18.20;99.90;;;;;;4934076;29;20257;-77
2021/06/22 03:34:23;;;;;;;16.17;15.03;;;18.10;99.90;;;;;;4937138;29;20205;-76
2021/06/22 03:36:50;;;;;;;16.43;15.10;;;18.10;99.90;;;;;;4927879;29;20303;-77
2021/06/22 03:39:18;;;;;;;16.33;15.30;;;18.10;99.90;;;;;;4935888;29;20242;-76
2021/06/22 03:41:45;;;;;;;16.93;15.73;;;18.10;99.90;;;;;;4935567;29;20213;-76
2021/06/22 03:44:14;;;;;;;18.00;16.60;;;18.20;99.90;;;;;;4935740;29;20264;-77
2021/06/22 03:47:08;;;;;;;16.13;15.03;;;18.20;99.90;;;;;;4934703;29;20343;-76
2021/06/22 03:49:35;;;;;;;15.93;14.73;;;18.20;99.90;;;;;;4935889;29;20213;-77
2021/06/22 03:52:03;;;;;;;16.33;14.87;;;18.40;99.90;;;;;;4937304;29;20605;-77
2021/06/22 03:54:33;;;;;;;16.27;15.10;;;18.40;99.90;;;;;;4935521;29;20231;-77
2021/06/22 03:57:00;;;;;;;16.40;15.20;;;18.40;99.90;;;;;;4935700;29;20193;-77
2021/06/22 03:59:53;;;;;;;15.93;14.73;;;18.50;99.90;;;;;;4932388;29;20211;-76
2021/06/22 04:02:21;;;;;;;14.90;13.90;;;18.50;99.90;;;;;;4935718;29;20219;-77
2021/06/22 04:04:48;;;;;;;15.90;14.87;;;18.50;99.90;;;;;;4928780;29;20727;-77
2021/06/22 04:07:36;;;;;;;15.63;14.60;;;18.50;99.90;;;;;;4935323;29;20703;-79
2021/06/22 04:10:05;;;;;;;16.43;15.13;;;18.60;99.90;;;;;;4935450;29;20222;-79
2021/06/22 04:12:36;;;;;;;16.40;15.30;;;18.60;99.90;;;;;;4934616;29;20622;-76
2021/06/22 04:15:04;;;;;;;15.73;14.67;;;18.60;99.90;;;;;;4936246;29;20220;-76
2021/06/22 04:17:32;;;;;;;15.63;14.53;;;18.60;99.90;;;;;;4936004;29;20200;-77
2021/06/22 04:19:59;;;;;;;16.57;15.20;;;18.60;99.90;;;;;;4935083;29;20199;-77
2021/06/22 04:22:26;;;;;;;17.90;16.53;;;18.60;99.90;;;;;;4934983;29;20205;-76
2021/06/22 04:25:19;;;;;;;19.40;15.70;;;18.60;99.90;;;;;;4934784;29;20233;-77
2021/06/22 04:27:47;;;;;;;15.63;14.73;;;18.60;99.90;;;;;;4934637;29;20292;-76
2021/06/22 04:30:14;;;;;;;14.43;13.53;;;18.60;99.90;;;;;;4936026;29;20244;-77
2021/06/22 04:32:42;;;;;;;14.13;13.23;;;18.60;99.90;;;;;;4934914;29;20207;-77
2021/06/22 04:35:11;;;;;;;14.60;13.57;;;18.60;99.90;;;;;;4933553;29;20251;-77
2021/06/22 04:37:41;;;;;;;15.70;14.53;;;18.60;99.90;;;;;;4935825;29;20239;-77
2021/06/22 04:40:09;;;;;;;15.97;14.77;;;18.60;99.90;;;;;;4934383;29;20205;-77
2021/06/22 04:42:36;;;;;;;15.40;14.40;;;18.60;99.90;;;;;;4936193;29;20585;-76
2021/06/22 04:45:03;;;;;;;15.57;14.60;;;18.60;99.90;;;;;;4930368;29;20231;-77
2021/06/22 04:47:30;;;;;;;15.50;14.43;;;18.50;99.90;;;;;;4924221;29;20600;-77
2021/06/22 04:49:59;;;;;;;15.13;14.23;;;18.50;99.90;;;;;;4934763;29;20222;-77
2021/06/22 04:52:26;;;;;;;15.57;14.50;;;18.50;99.90;;;;;;4936104;29;20552;-77
2021/06/22 04:54:52;;;;;;;15.13;14.20;;;18.60;99.90;;;;;;4934403;29;20234;-76
2021/06/22 04:57:20;;;;;;;15.50;14.40;;;18.60;99.90;;;;;;4935772;29;20239;-75
2021/06/22 04:59:47;;;;;;;15.53;14.30;;;18.70;99.90;;;;;;4935593;29;20684;-77
2021/06/22 05:02:14;;;;;;;15.07;13.97;;;18.70;99.90;;;;;;4933823;29;20195;-76
2021/06/22 05:04:42;;;;;;;14.20;13.23;;;18.80;99.90;;;;;;4934536;29;20236;-77
2021/06/22 05:07:14;;;;;;;14.93;13.83;;;18.80;99.90;;;;;;4930552;29;20262;-77
2021/06/22 05:12:48;;;;;;;14.37;13.57;;;19.00;99.90;;;;;;4876960;29;21984;-77
2021/06/22 05:18:08;;;;;;;14.40;13.60;;;19.30;99.90;;;;;;5043167;23;20234;-76
2021/06/22 05:21:13;;;;;;;13.80;13.00;;;19.50;99.90;;;;;;4934938;29;20622;-78
2021/06/22 05:24:12;;;;;;;15.00;14.00;;;19.50;99.90;;;;;;4925826;29;20304;-77
2021/06/22 05:26:41;;;;;;;15.30;14.20;;;19.50;99.90;;;;;;4920258;29;20238;-78
2021/06/22 05:29:10;;;;;;;15.00;13.90;;;19.40;99.90;;;;;;4934774;29;20663;-78
2021/06/22 05:31:37;;;;;;;14.73;13.80;;;19.40;99.90;;;;;;4935770;29;20243;-78
2021/06/22 05:34:03;;;;;;;15.27;13.97;;;19.40;99.90;;;;;;4936489;29;20206;-77
2021/06/22 05:36:30;;;;;;;14.57;13.60;;;19.40;99.90;;;;;;4935239;29;20219;-78
2021/06/22 05:38:57;;;;;;;14.00;13.10;;;19.50;99.90;;;;;;4929166;29;20204;-78
2021/06/22 05:41:24;;;;;;;13.80;13.00;;;19.60;99.90;;;;;;4934465;29;20207;-78
2021/06/22 05:43:52;;;;;;;15.03;13.77;;;19.60;99.90;;;;;;4936535;29;20205;-78
2021/06/22 05:46:19;;;;;;;13.70;12.70;;;19.60;99.90;;;;;;4937267;29;20233;-79
2021/06/22 05:48:45;;;;;;;14.00;13.10;;;19.50;99.90;;;;;;4936167;29;20663;-79
2021/06/22 05:51:12;;;;;;;13.43;12.53;;;19.60;99.90;;;;;;4937382;29;20228;-79
2021/06/22 05:53:40;;;;;;;13.67;12.43;;;19.70;99.90;;;;;;4937103;29;20203;-79
2021/06/22 05:56:07;;;;;;;13.30;12.50;;;19.80;99.90;;;;;;4947672;23;20254;-75
2021/06/22 05:58:33;;;;;;;13.17;12.37;;;19.80;99.90;;;;;;4912607;29;20737;-75
2021/06/22 06:01:02;;;;;;;13.80;12.90;;;19.80;99.90;;;;;;4914963;29;20204;-76
2021/06/22 06:03:28;;;;;;;14.00;12.97;;;19.70;99.90;;;;;;4915330;29;20555;-76
2021/06/22 06:05:55;;;;;;;13.57;12.77;;;19.70;99.90;;;;;;4913453;29;20215;-75
2021/06/22 06:08:22;;;;;;;13.70;12.90;;;19.60;99.90;;;;;;4915061;29;20219;-75
2021/06/22 06:10:49;;;;;;;14.07;13.17;;;19.60;99.90;;;;;;4913299;29;20227;-76
2021/06/22 06:13:16;;;;;;;14.40;13.40;;;19.50;99.90;;;;;;4914347;29;20238;-76
2021/06/22 06:15:42;;;;;;;15.23;14.00;;;19.50;99.90;;;;;;4913893;29;20643;-77
2021/06/22 06:18:11;;;;;;;14.80;13.73;;;19.50;99.90;;;;;;4913773;29;20208;-77
2021/06/22 06:20:38;;;;;;;14.90;13.80;;;19.40;99.90;;;;;;4912048;29;20246;-79
2021/06/22 06:23:05;;;;;;;14.40;13.50;;;19.40;99.90;;;;;;4908062;29;20208;-77
2021/06/22 06:25:31;;;;;;;14.17;13.27;;;19.50;99.90;;;;;;4913701;29;20224;-77
2021/06/22 06:28:00;;;;;;;14.40;13.30;;;19.60;99.90;;;;;;4915271;29;20672;-76
2021/06/22 06:30:29;;;;;;;13.90;13.00;;;19.70;99.90;;;;;;4914865;29;20252;-76
2021/06/22 06:32:56;;;;;;;15.00;13.50;;;20.00;99.90;;;;;;4915178;29;20193;-75
2021/06/22 06:35:25;;;;;;;13.43;12.60;;;20.30;99.90;;;;;;4914757;29;20216;-77
2021/06/22 06:37:52;;;;;;;14.13;13.13;;;20.40;99.90;;;;;;4913956;29;20192;-75
2021/06/22 06:40:19;;;;;;;13.57;12.77;;;20.50;99.90;;;;;;4915304;29;20599;-75
2021/06/22 06:42:47;;;;;;;13.63;12.73;;;20.60;99.90;;;;;;4914769;29;20208;-76
2021/06/22 06:45:16;;;;;;;13.70;12.73;;;20.80;99.90;;;;;;4910700;29;20225;-76
2021/06/22 06:47:42;;;;;;;13.60;12.70;;;20.90;99.90;;;;;;4913505;29;20292;-75
2021/06/22 06:50:10;;;;;;;13.43;12.30;;;20.90;99.90;;;;;;4915034;29;20253;-75
2021/06/22 06:52:38;;;;;;;12.73;11.93;;;20.90;99.90;;;;;;4914448;29;20214;-76
2021/06/22 06:55:24;;;;;;;13.43;12.53;;;20.90;99.90;;;;;;4914681;29;20646;-75
2021/06/22 06:57:52;;;;;;;13.67;12.83;;;20.90;99.90;;;;;;4925719;29;20643;-75
2021/06/22 07:00:20;;;;;;;14.10;13.00;;;20.90;99.90;;;;;;4910940;29;20573;-75
2021/06/22 07:02:47;;;;;;;13.83;12.83;;;21.00;99.90;;;;;;4913495;29;20199;-75
2021/06/22 07:05:14;;;;;;;13.30;12.40;;;21.10;99.90;;;;;;4914811;29;20222;-75
2021/06/22 07:07:43;;;;;;;12.20;11.40;;;21.30;99.90;;;;;;4913293;29;20231;-75
2021/06/22 07:10:11;;;;;;;10.77;9.97;;;21.50;99.90;;;;;;4915667;29;20290;-76
2021/06/22 07:12:38;;;;;;;11.10;10.30;;;21.60;99.90;;;;;;4913482;29;20214;-76
2021/06/22 07:15:06;;;;;;;10.50;9.80;;;21.50;99.90;;;;;;4914426;29;20219;-75
2021/06/22 07:17:33;;;;;;;5.23;4.73;;;21.50;99.90;;;;;;4914532;29;20197;-76
2021/06/22 07:20:00;;;;;;;10.57;9.87;;;21.30;99.90;;;;;;4914329;29;20622;-75
2021/06/22 07:22:27;;;;;;;11.40;10.60;;;21.30;99.90;;;;;;4914503;29;20203;-76
2021/06/22 07:24:55;;;;;;;9.97;9.27;;;21.10;99.90;;;;;;4914581;29;20644;-78
2021/06/22 07:27:22;;;;;;;11.70;11.00;;;21.00;99.90;;;;;;4914676;29;20199;-78
2021/06/22 07:29:49;;;;;;;11.57;10.70;;;20.90;99.90;;;;;;4913719;29;20616;-77
2021/06/22 07:32:16;;;;;;;12.17;11.17;;;20.80;99.90;;;;;;4927175;29;20274;-78
2021/06/22 07:34:42;;;;;;;13.00;12.10;;;20.70;99.90;;;;;;4900856;29;20200;-77
2021/06/22 07:37:09;;;;;;;12.50;11.70;;;20.70;99.90;;;;;;4907338;29;20202;-77
2021/06/22 07:39:36;;;;;;;13.03;12.13;;;20.70;99.90;;;;;;4908908;29;20211;-79
2021/06/22 07:42:04;;;;;;;11.50;10.80;;;20.60;99.90;;;;;;4913994;29;20246;-77
2021/06/22 07:44:31;;;;;;;11.70;11.00;;;20.60;99.90;;;;;;4918127;29;20219;-77
2021/06/22 07:46:58;;;;;;;13.77;12.67;;;20.50;99.90;;;;;;4918021;29;20737;-76
2021/06/22 07:49:25;;;;;;;13.57;12.57;;;20.50;99.90;;;;;;4916571;29;20274;-77
2021/06/22 07:51:52;;;;;;;12.73;11.93;;;20.50;99.90;;;;;;4916661;29;20229;-77
2021/06/22 07:54:20;;;;;;;12.90;12.00;;;20.40;99.90;;;;;;4918584;29;20728;-80
2021/06/22 07:56:46;;;;;;;13.23;12.33;;;20.50;99.90;;;;;;4918224;29;20225;-78
2021/06/22 07:59:15;;;;;;;13.27;12.27;;;20.50;99.90;;;;;;4912751;29;20725;-79
2021/06/22 08:01:41;;;;;;;12.23;11.43;;;20.50;99.90;;;;;;4915789;29;20249;-78
2021/06/22 08:04:08;;;;;;;12.10;11.30;;;20.60;99.90;;;;;;4917193;29;20565;-78
2021/06/22 08:06:35;;;;;;;11.93;11.07;;;20.60;99.90;;;;;;4916505;29;20230;-78
2021/06/22 08:09:02;;;;;;;12.00;11.00;;;20.70;99.90;;;;;;4918011;29;20229;-78
2021/06/22 08:11:29;;;;;;;11.17;10.47;;;20.80;99.90;;;;;;4917963;29;20229;-79
2021/06/22 08:13:55;;;;;;;11.53;10.63;;;21.10;99.90;;;;;;4917945;29;20201;-78
2021/06/22 08:16:24;;;;;;;11.17;10.40;;;21.30;99.90;;;;;;4917647;29;20597;-78
2021/06/22 08:18:50;;;;;;;11.03;10.43;;;21.50;99.90;;;;;;4914407;29;20218;-78
2021/06/22 08:21:17;;;;;;;12.13;11.20;;;21.70;99.90;;;;;;4918212;29;20579;-76
2021/06/22 08:23:44;;;;;;;10.47;9.87;;;22.00;99.90;;;;;;4916274;29;20701;-77
2021/06/22 08:26:11;;;;;;;3.90;3.60;;;22.30;99.90;;;;;;4912601;29;20236;-75
2021/06/22 08:28:38;;;;;;;6.80;6.30;;;22.40;99.90;;;;;;4916151;29;20238;-77
2021/06/22 08:31:05;;;;;;;5.07;4.57;;;22.40;99.90;;;;;;4917295;29;20303;-76
2021/06/22 08:33:33;;;;;;;7.70;7.20;;;22.30;99.90;;;;;;4915853;29;20204;-76
2021/06/22 08:36:01;;;;;;;6.47;6.00;;;22.20;99.90;;;;;;4916792;29;20220;-75
2021/06/22 08:38:27;;;;;;;7.00;6.40;;;22.00;99.90;;;;;;4930841;29;20267;-76
2021/06/22 08:40:54;;;;;;;8.10;7.60;;;21.80;99.90;;;;;;4928459;29;20668;-75
2021/06/22 08:43:21;;;;;;;7.70;7.20;;;21.80;99.90;;;;;;4912755;29;20207;-75
2021/06/22 08:45:48;;;;;;;9.50;8.90;;;21.70;99.90;;;;;;4916313;29;20234;-76
2021/06/22 08:48:17;;;;;;;9.20;8.60;;;21.70;99.90;;;;;;4916707;29;20203;-75
2021/06/22 08:50:47;;;;;;;10.60;9.90;;;21.70;99.90;;;;;;4916517;29;20566;-76
2021/06/22 08:53:15;;;;;;;9.80;9.20;;;21.80;99.90;;;;;;4916690;29;20210;-76
2021/06/22 08:55:43;;;;;;;9.73;9.13;;;22.00;99.90;;;;;;4916296;29;20231;-76
2021/06/22 08:58:11;;;;;;;9.17;8.60;;;22.10;99.90;;;;;;4915108;29;20203;-76
2021/06/22 09:00:40;;;;;;;8.93;8.37;;;22.10;99.90;;;;;;4915310;29;20215;-75
2021/06/22 09:03:11;;;;;;;7.70;7.20;;;22.20;99.90;;;;;;4916429;29;20215;-76
2021/06/22 09:05:39;;;;;;;8.37;7.87;;;22.20;99.90;;;;;;4899455;29;20303;-75
2021/06/22 09:08:18;;;;;;;7.00;6.50;;;22.20;99.90;;;;;;4916314;29;20208;-76
2021/06/22 09:10:45;;;;;;;4.90;4.60;;;22.50;99.90;;;;;;4930413;29;20213;-76
2021/06/22 09:13:14;;;;;;;3.40;3.10;;;22.80;99.90;;;;;;4916377;29;20212;-76
2021/06/22 09:15:42;;;;;;;3.13;2.93;;;23.00;99.90;;;;;;4914745;29;20239;-75
2021/06/22 09:18:24;;;;;;;7.90;7.37;;;23.20;99.90;;;;;;4916361;29;20207;-75
2021/06/22 09:20:51;;;;;;;8.33;7.73;;;23.30;99.90;;;;;;4911748;29;20211;-76
2021/06/22 09:23:21;;;;;;;8.10;7.60;;;23.40;99.90;;;;;;4916200;29;20211;-77
2021/06/22 09:25:52;;;;;;;7.60;7.20;;;23.40;99.90;;;;;;4916409;29;20275;-76
2021/06/22 09:28:22;;;;;;;7.93;7.33;;;23.30;99.90;;;;;;4928063;29;20204;-77
2021/06/22 09:30:52;;;;;;;9.20;8.60;;;23.20;99.90;;;;;;4903764;29;20798;-79
2021/06/22 09:33:21;;;;;;;8.57;8.07;;;22.90;99.90;;;;;;4908380;29;20319;-78
2021/06/22 09:35:50;;;;;;;10.47;9.77;;;22.80;99.90;;;;;;4914048;29;20215;-77
2021/06/22 09:38:18;;;;;;;10.13;9.43;;;22.80;99.90;;;;;;4915790;29;20203;-78
2021/06/22 09:40:45;;;;;;;9.80;9.20;;;22.80;99.90;;;;;;4915543;29;20202;-78
2021/06/22 09:43:12;;;;;;;10.10;9.40;;;22.90;99.90;;;;;;4927314;29;20215;-76
2021/06/22 09:45:43;;;;;;;9.90;9.30;;;22.90;99.90;;;;;;4915246;29;20216;-77
2021/06/22 09:48:10;;;;;;;10.00;9.30;;;22.80;99.90;;;;;;4911667;29;20291;-76
2021/06/22 09:50:40;;;;;;;8.07;7.57;;;23.00;99.90;;;;;;4906407;29;20201;-77
2021/06/22 09:53:29;;;;;;;9.27;8.77;;;23.20;99.90;;;;;;4917618;29;20232;-77
2021/06/22 09:55:57;;;;;;;10.20;9.47;;;23.80;99.90;;;;;;4908410;29;20730;-77
2021/06/22 09:58:39;;;;;;;10.27;9.57;;;24.10;99.90;;;;;;4910672;29;20200;-77
2021/06/22 10:01:06;;;;;;;8.17;7.40;;;24.40;99.90;;;;;;4906984;29;20257;-78
2021/06/22 10:03:37;;;;;;;7.97;7.43;;;24.60;99.90;;;;;;4907787;29;20231;-77
2021/06/22 10:06:09;;;;;;;7.87;7.37;;;25.00;99.90;;;;;;4915990;29;20220;-80
2021/06/22 10:08:54;;;;;;;7.80;7.30;;;25.50;99.90;;;;;;4914884;29;20633;-77
2021/06/22 10:11:31;;;;;;;8.17;7.57;;;25.80;99.90;;;;;;4915964;29;20250;-77
2021/06/22 10:13:58;;;;;;;7.90;7.40;;;25.90;99.90;;;;;;4909206;29;20196;-77
2021/06/22 10:16:29;;;;;;;7.63;7.10;;;25.70;99.90;;;;;;4915924;29;20223;-77
2021/06/22 10:18:56;;;;;;;8.80;8.10;;;25.60;99.90;;;;;;4912296;29;20204;-78
2021/06/22 10:21:23;;;;;;;10.87;10.10;;;25.30;99.90;;;;;;4902632;29;20208;-76
2021/06/22 10:23:52;;;;;;;10.33;9.50;;;24.90;99.90;;;;;;4903855;29;20212;-76
2021/06/22 10:26:20;;;;;;;6.97;6.57;;;24.80;99.90;;;;;;4904505;29;20219;-76
2021/06/22 10:28:47;;;;;;;7.90;7.37;;;24.90;99.90;;;;;;4900417;29;20200;-77
2021/06/22 10:31:14;;;;;;;7.30;6.70;;;25.10;99.90;;;;;;4903433;29;20201;-77
2021/06/22 10:33:41;;;;;;;8.37;6.83;;;25.50;99.90;;;;;;4924744;29;20200;-77
2021/06/22 10:36:09;;;;;;;8.83;8.13;;;25.50;99.90;;;;;;4901621;29;20228;-78
2021/06/22 10:38:39;;;;;;;9.33;8.73;;;25.60;99.90;;;;;;4905432;29;20206;-77
2021/06/22 10:41:09;;;;;;;8.83;8.17;;;25.50;99.90;;;;;;4899788;29;20200;-77
2021/06/22 10:43:38;;;;;;;8.70;8.00;;;25.40;99.90;;;;;;4910880;29;20211;-78
2021/06/22 10:46:06;;;;;;;8.83;8.33;;;25.30;99.90;;;;;;4912484;29;20220;-77
2021/06/22 10:48:41;;;;;;;8.87;8.10;;;25.40;99.90;;;;;;4915309;29;20204;-77
2021/06/22 10:51:29;;;;;;;9.57;8.67;;;25.50;99.90;;;;;;4915442;29;20199;-76
2021/06/22 10:53:56;;;;;;;9.10;8.40;;;25.60;99.90;;;;;;4909381;29;20243;-77
2021/06/22 10:56:25;;;;;;;8.83;8.03;;;25.60;99.90;;;;;;4915153;29;20243;-77
2021/06/22 10:59:26;;;;;;;9.10;8.50;;;25.80;99.90;;;;;;4908238;29;20204;-77
2021/06/22 11:02:07;;;;;;;8.60;8.00;;;26.20;99.90;;;;;;4908454;29;20607;-76
2021/06/22 11:04:35;;;;;;;8.70;7.97;;;26.40;99.90;;;;;;4915518;29;20226;-76
2021/06/22 11:07:22;;;;;;;8.70;8.20;;;26.20;99.90;;;;;;4918700;29;20299;-77
2021/06/22 11:10:15;;;;;;;9.07;8.37;;;26.10;99.90;;;;;;4930955;29;20209;-78
2021/06/22 11:12:53;;;;;;;8.70;8.20;;;26.30;99.90;;;;;;4916798;29;20243;-76
2021/06/22 11:15:20;;;;;;;9.00;8.30;;;26.30;99.90;;;;;;4914118;29;20227;-77
2021/06/22 11:18:00;;;;;;;8.80;8.30;;;26.10;99.90;;;;;;4918593;29;20226;-77
2021/06/22 11:20:33;;;;;;;8.90;8.30;;;26.00;99.90;;;;;;4916127;29;20204;-77
2021/06/22 11:23:06;;;;;;;8.70;8.20;;;25.80;99.90;;;;;;4919069;29;20686;-77
2021/06/22 11:26:02;;;;;;;8.80;8.30;;;25.50;99.90;;;;;;4933052;29;20615;-78
2021/06/22 11:28:52;;;;;;;9.70;8.90;;;25.10;99.90;;;;;;4914376;29;20212;-76
2021/06/22 11:31:41;;;;;;;9.77;9.17;;;24.90;99.90;;;;;;4916821;29;20208;-77
2021/06/22 11:34:10;;;;;;;7.97;7.27;;;24.60;99.90;;;;;;4912810;29;20200;-76
2021/06/22 11:36:39;;;;;;;7.80;7.23;;;24.40;99.90;;;;;;4917762;29;20223;-77
2021/06/22 11:39:19;;;;;;;8.13;7.53;;;24.20;99.90;;;;;;4912050;29;20223;-78
2021/06/22 11:42:21;;;;;;;7.70;7.20;;;23.90;99.90;;;;;;4917790;29;20274;-76
2021/06/22 11:44:55;;;;;;;7.70;7.10;;;23.80;99.90;;;;;;4917601;29;20193;-78
2021/06/22 11:48:05;;;;;;;7.97;7.47;;;23.50;99.90;;;;;;4917756;29;20208;-77
2021/06/22 11:50:51;;;;;;;7.67;7.20;;;23.30;99.90;;;;;;4915493;29;20208;-78
2021/06/22 11:53:18;;;;;;;9.20;8.60;;;23.10;99.90;;;;;;4916359;29;20286;-76
2021/06/22 11:55:55;;;;;;;8.80;8.20;;;22.80;99.90;;;;;;4936416;23;106449;-77
2021/06/22 11:58:32;;;;;;;8.50;8.00;;;22.50;99.90;;;;;;4947895;28;20206;-76
2021/06/22 12:01:13;;;;;;;9.97;9.10;;;22.20;99.90;;;;;;4935693;29;20198;-75
2021/06/22 12:07:56;;;;;;;11.27;10.47;;;21.60;99.90;;;;;;4900630;29;20294;-77
2021/06/22 12:10:41;;;;;;;12.47;11.47;;;21.30;99.90;;;;;;4917048;29;20210;-77
2021/06/22 12:13:09;;;;;;;12.70;11.70;;;21.10;99.90;;;;;;4916851;29;20309;-77
2021/06/22 12:15:38;;;;;;;12.37;11.30;;;20.90;99.90;;;;;;4917162;29;20283;-77
2021/06/22 12:18:17;;;;;;;13.23;12.13;;;20.90;99.90;;;;;;4915271;29;20191;-77
2021/06/22 12:20:46;;;;;;;12.20;11.20;;;20.70;99.90;;;;;;4917686;29;20289;-77
2021/06/22 12:23:22;;;;;;;12.60;11.27;;;20.70;99.90;;;;;;4914325;29;20214;-77
2021/06/22 12:25:52;;;;;;;11.40;10.27;;;20.70;99.90;;;;;;4917298;29;20738;-77
2021/06/22 12:28:27;;;;;;;11.57;10.57;;;20.50;99.90;;;;;;4930478;29;20736;-77
2021/06/22 12:30:58;;;;;;;11.37;10.20;;;20.40;99.90;;;;;;4916278;29;20193;-78
2021/06/22 12:33:29;;;;;;;10.07;9.37;;;20.30;99.90;;;;;;4915429;29;20229;-77
2021/06/22 12:36:08;;;;;;;9.90;9.20;;;20.20;99.90;;;;;;4915687;29;20220;-77
2021/06/22 12:38:42;;;;;;;9.13;8.47;;;20.10;99.90;;;;;;4915669;29;20569;-77
2021/06/22 12:43:58;;;;;;;8.83;8.20;;;20.30;99.90;;;;;;4916232;29;20219;-77
2021/06/22 12:46:37;;;;;;;9.57;8.73;;;20.60;99.90;;;;;;4915770;29;20222;-77
2021/06/22 12:49:10;;;;;;;9.97;9.30;;;20.70;99.90;;;;;;4917328;29;20222;-77
2021/06/22 12:51:41;;;;;;;11.00;10.17;;;20.90;99.90;;;;;;4914884;29;20209;-77
2021/06/22 12:54:13;;;;;;;4.00;3.67;;;20.90;99.90;;;;;;4915861;29;20230;-77
2021/06/22 12:56:52;;;;;;;10.73;10.03;;;21.00;99.90;;;;;;4915639;29;20759;-76
2021/06/22 12:59:23;;;;;;;7.57;6.97;;;21.30;99.90;;;;;;4915784;29;20290;-77
2021/06/22 13:01:52;;;;;;;6.80;6.30;;;21.60;99.90;;;;;;4928407;29;20274;-77
2021/06/22 13:04:24;;;;;;;9.57;8.97;;;22.00;99.90;;;;;;4915305;29;20751;-77